Aérodrome :
LOGIN :

S'inscrire | Disclaimer

   EN    FR    IT 

 










Légende :    VFR   VFR Marginal   IFR   IFR Intensif   IFR Très Intensif
Visi : 
Plafond : 
>= 8 km
>= 3000ft
5 à 8 km
1000 à 3000 ft
1500m à 5 km
500 à 1000 ft
800 à 1500m
200 à 500 ft
< 800m
< 200 ft
Symboles :   Orages  Brouillard  Fortes neiges  Fortes précipitations  Vent > 20 kt
SIGMETs :   Divers  Orages  Givrage  Turbulence  Onde Orograph.  Cendres Volcan.






- Altitude de l'aérodrome : 2001 ft
- Code IATA : MAD


LEMD - Madrid

DERNIER METAR :
  • 250030Z VRB01KT CAVOK 04/01 Q1022 NOSIG

METARs EXPIRÉS :
  • 250000Z 36003KT CAVOK 06/02 Q1023 NOSIG
  • 242330Z VRB02KT CAVOK 06/02 Q1023 NOSIG
  • 242300Z 34003KT CAVOK 06/02 Q1023 NOSIG
  • 242230Z 01004KT CAVOK 08/02 Q1023 NOSIG
  • 242200Z 36001KT CAVOK 08/03 Q1023 NOSIG

TAF TAF LEMD
Valide du 25 à 00h jusqu'au 26 à 06h UTC


242300Z 2500/2606 VRB05KT CAVOK TX17/2515Z TN01/2507Z
BECMG 2510/2512 29010KT
PROB30
TEMPO 2511/2518 29010G20KT
BECMG 2604/2606 VRB05KT



MET'MAP, la Météo Aéronautique d'un coup d'oeil ! - Copyright ORBIFLY Décembre 2007 - Disclaimer

ORBIFLY MET'MAP TEAM :

Programmation & Développement : Alexandra Zaïnal
Sur une idée originale de : Baudouin d'Aumeries
Assistance à la programmation : Marc-Olivier Méhu
Soutien technique & logistique : Manuel Goepfert

Contact : metmap@orbifly.com




SOURCES & CREDITS :

   NOAA